Time;durP1;ratioP1;P1;durP2;ratioP2;P2;SDS_P1;SDS_P2;PMS_P1;PMS_P2;Temp;Humidity;BMP_temperature;BMP_pressure;BME280_temperature;BME280_humidity;BME280_pressure;Samples;Min_cycle;Max_cycle;Signal;HPM_P1;HPM_P2
2021/06/29 00:00:50;;;;;;;9.57;5.90;;;;;;;18.78;83.84;100566.24;125087;1093;64337;-79
2021/06/29 00:03:17;;;;;;;6.70;5.40;;;;;;;18.78;84.25;100563.55;125224;1093;64438;-79
2021/06/29 00:05:49;;;;;;;6.80;5.73;;;;;;;18.77;84.13;100565.43;125287;1093;64293;-80
2021/06/29 00:08:16;;;;;;;9.00;5.43;;;;;;;18.78;84.15;100560.87;124840;1092;64298;-79
2021/06/29 00:10:45;;;;;;;6.33;4.97;;;;;;;18.79;84.70;100554.48;125111;1092;64284;-78
2021/06/29 00:13:12;;;;;;;5.90;5.10;;;;;;;18.80;84.78;100548.05;125034;1093;64309;-79
2021/06/29 00:15:39;;;;;;;9.73;5.70;;;;;;;18.80;84.83;100548.86;125128;1093;64379;-79
2021/06/29 00:18:07;;;;;;;7.60;6.33;;;;;;;18.82;85.04;100535.20;125017;1093;64311;-79
2021/06/29 00:20:35;;;;;;;6.50;5.17;;;;;;;18.82;85.14;100535.20;124967;1093;64710;-80
2021/06/29 00:23:03;;;;;;;8.13;6.50;;;;;;;18.81;85.12;100538.95;125248;1093;64211;-79
2021/06/29 00:25:31;;;;;;;8.60;5.90;;;;;;;18.80;85.04;100539.98;125194;1093;64290;-81
2021/06/29 00:27:58;;;;;;;7.70;5.47;;;;;;;18.76;84.99;100536.91;125049;1092;64426;-80
2021/06/29 00:30:26;;;;;;;8.00;6.23;;;;;;;18.74;85.19;100529.10;125248;1093;64221;-80
2021/06/29 00:32:53;;;;;;;7.20;6.13;;;;;;;18.74;85.47;100528.27;125259;1092;64326;-79
2021/06/29 00:35:21;;;;;;;5.43;4.50;;;;;;;18.71;86.50;100540.30;125342;1092;64622;-79
2021/06/29 00:37:47;;;;;;;8.10;5.57;;;;;;;18.71;86.62;100544.86;125019;1092;64288;-79
2021/06/29 00:40:16;;;;;;;8.33;6.23;;;;;;;18.71;86.77;100556.42;124997;1093;65059;-79
2021/06/29 00:42:43;;;;;;;7.53;5.70;;;;;;;18.74;86.46;100557.82;125130;1093;64291;-79
2021/06/29 00:45:12;;;;;;;8.93;5.50;;;;;;;18.77;86.34;100551.19;125243;1093;64313;-79
2021/06/29 00:47:39;;;;;;;6.03;5.10;;;;;;;18.80;86.26;100537.30;125095;1093;64230;-79
2021/06/29 00:50:07;;;;;;;7.23;5.37;;;;;;;18.84;86.24;100539.28;125238;1092;64344;-80
2021/06/29 00:52:34;;;;;;;6.80;5.95;;;;;;;18.88;86.27;100532.39;125039;1093;64827;-79
2021/06/29 00:55:02;;;;;;;7.15;5.40;;;;;;;18.92;85.90;100538.13;125141;1092;64304;-79
2021/06/29 00:57:29;;;;;;;6.70;5.10;;;;;;;18.95;85.56;100537.64;125160;1093;64208;-80
2021/06/29 00:59:56;;;;;;;5.60;4.63;;;;;;;18.98;85.51;100544.41;125289;1093;64335;-79
2021/06/29 01:02:24;;;;;;;5.80;4.70;;;;;;;19.01;85.34;100543.97;125325;1093;64298;-79
2021/06/29 01:04:51;;;;;;;6.45;4.90;;;;;;;19.00;85.24;100542.31;125146;1093;64396;-79
2021/06/29 01:07:18;;;;;;;6.20;4.83;;;;;;;19.02;84.85;100540.21;125356;1093;65314;-80
2021/06/29 01:09:45;;;;;;;5.00;4.13;;;;;;;19.02;85.26;100541.05;125163;1092;65375;-80
2021/06/29 01:12:16;;;;;;;6.50;5.30;;;;;;;19.02;84.85;100529.45;125232;1092;64295;-80
2021/06/29 01:14:43;;;;;;;7.23;4.93;;;;;;;19.03;84.64;100531.92;125241;1092;64279;-80
2021/06/29 01:17:10;;;;;;;6.20;5.07;;;;;;;19.05;84.74;100529.81;125185;1092;64381;-80
2021/06/29 01:19:45;;;;;;;8.23;5.23;;;;;;;19.07;84.78;100538.47;125158;1093;64285;-80
2021/06/29 01:22:14;;;;;;;6.67;5.47;;;;;;;19.08;85.00;100539.27;125346;1093;64302;-80
2021/06/29 01:24:50;;;;;;;8.23;5.17;;;;;;;19.07;85.08;100546.53;125405;1093;64262;-80
2021/06/29 01:27:34;;;;;;;6.47;5.23;;;;;;;19.04;85.71;100557.77;125244;1093;64373;-80
2021/06/29 01:32:31;;;;;;;7.30;5.50;;;;;;;19.00;86.18;100570.04;125639;1093;64470;-79
2021/06/29 01:35:04;;;;;;;6.90;5.13;;;;;;;18.99;85.92;100572.95;125538;1093;64287;-80
2021/06/29 01:37:31;;;;;;;6.00;4.80;;;;;;;18.98;85.83;100566.77;125405;1093;64304;-80
2021/06/29 01:40:03;;;;;;;8.10;5.20;;;;;;;18.98;85.66;100566.77;124950;1092;64208;-80
2021/06/29 01:42:31;;;;;;;6.37;4.63;;;;;;;18.99;85.48;100563.01;125249;1093;64300;-79
2021/06/29 01:44:59;;;;;;;6.10;5.37;;;;;;;18.98;85.80;100561.39;125190;1092;64274;-79
2021/06/29 01:47:29;;;;;;;9.13;4.67;;;;;;;18.97;85.64;100570.48;125508;1093;64282;-79
2021/06/29 01:49:56;;;;;;;7.07;4.20;;;;;;;18.96;85.52;100571.55;125278;1092;64282;-79
2021/06/29 01:52:23;;;;;;;5.30;3.93;;;;;;;18.93;85.29;100569.31;125660;1092;64331;-80
2021/06/29 01:54:50;;;;;;;7.00;3.33;;;;;;;18.92;85.06;100573.07;125192;1092;64793;-78
2021/06/29 01:57:18;;;;;;;12.17;3.80;;;;;;;18.88;84.69;100561.14;125216;1093;64290;-80
2021/06/29 01:59:48;;;;;;;3.90;3.10;;;;;;;18.85;84.76;100564.28;125311;1093;64979;-79
2021/06/29 02:02:15;;;;;;;5.17;3.17;;;;;;;18.85;84.41;100572.34;125208;1093;64316;-81
2021/06/29 02:04:43;;;;;;;9.33;3.33;;;;;;;18.83;84.59;100582.51;125156;1093;64297;-81
2021/06/29 02:07:10;;;;;;;6.00;3.07;;;;;;;18.81;84.28;100572.02;125160;1093;64390;-79
2021/06/29 02:09:37;;;;;;;5.23;2.80;;;;;;;18.79;83.63;100573.30;125272;1092;64288;-78
2021/06/29 02:12:05;;;;;;;5.87;2.00;;;;;;;18.77;83.62;100565.43;125153;1093;64869;-80
2021/06/29 02:14:33;;;;;;;8.10;2.40;;;;;;;18.75;83.14;100568.34;125050;1093;64264;-80
2021/06/29 02:17:00;;;;;;;8.70;2.40;;;;;;;18.77;82.69;100570.00;125148;1093;64288;-82
2021/06/29 02:19:27;;;;;;;8.13;2.57;;;;;;;18.84;82.16;100570.72;125138;1093;64525;-80
2021/06/29 02:21:54;;;;;;;4.97;2.27;;;;;;;18.88;82.11;100555.77;125027;1093;64280;-80
2021/06/29 02:24:21;;;;;;;4.50;2.17;;;;;;;18.93;81.83;100569.31;125187;1093;64288;-80
2021/06/29 02:26:48;;;;;;;4.95;2.10;;;;;;;18.96;81.75;100558.11;125249;1092;64349;-79
2021/06/29 02:29:16;;;;;;;10.70;2.50;;;;;;;19.01;81.54;100560.09;125277;1093;64276;-79
2021/06/29 02:31:43;;;;;;;3.83;2.63;;;;;;;19.03;81.26;100545.36;125245;1093;64374;-79
2021/06/29 02:34:10;;;;;;;5.93;2.30;;;;;;;19.06;81.21;100555.66;125282;1093;64275;-79
2021/06/29 02:36:37;;;;;;;5.15;2.40;;;;;;;19.10;81.26;100550.61;125012;1093;64351;-79
2021/06/29 02:39:04;;;;;;;4.40;2.17;;;;;;;19.10;81.38;100548.73;125326;1092;64236;-79
2021/06/29 02:41:36;;;;;;;3.57;2.33;;;;;;;19.12;81.56;100562.77;125157;1092;64195;-80
2021/06/29 02:44:08;;;;;;;5.43;2.67;;;;;;;19.13;81.26;100553.66;125013;1092;64437;-79
2021/06/29 02:46:35;;;;;;;4.05;2.75;;;;;;;19.13;81.90;100558.23;124992;1092;64378;-79
2021/06/29 02:49:02;;;;;;;6.07;2.80;;;;;;;19.13;82.18;100558.23;125251;1093;64300;-79
2021/06/29 02:51:29;;;;;;;5.50;2.83;;;;;;;19.12;82.63;100551.20;125288;1093;64284;-82
2021/06/29 02:53:56;;;;;;;13.00;3.73;;;;;;;19.10;83.07;100559.48;125271;1093;64310;-79
2021/06/29 02:56:42;;;;;;;6.73;2.80;;;;;;;19.10;83.29;100561.37;125148;1093;64354;-80
2021/06/29 02:59:16;;;;;;;3.30;2.70;;;;;;;19.10;83.19;100570.25;125235;1093;64288;-79
2021/06/29 03:01:44;;;;;;;;;;;;;;;19.09;83.59;100563.25;125102;1093;64731;-79
2021/06/29 03:04:12;;;;;;;3.97;2.27;;;;;;;19.10;83.65;100564.87;125338;1093;64173;-79
2021/06/29 03:06:40;;;;;;;6.47;2.67;;;;;;;19.10;84.14;100569.44;125200;1093;64259;-79
2021/06/29 03:09:08;;;;;;;6.83;2.80;;;;;;;19.10;84.22;100569.44;124952;1092;64345;-79
2021/06/29 03:11:39;;;;;;;6.60;2.87;;;;;;;19.10;84.31;100567.55;125215;1092;64255;-79
2021/06/29 03:14:06;;;;;;;6.00;3.50;;;;;;;19.08;84.38;100556.25;125198;1093;64313;-79
2021/06/29 03:16:33;;;;;;;4.20;3.20;;;;;;;19.08;84.64;100555.41;125150;1093;64310;-79
2021/06/29 03:19:00;;;;;;;7.63;2.93;;;;;;;19.05;85.12;100555.89;124972;1092;64140;-81
2021/06/29 03:21:27;;;;;;;4.47;3.10;;;;;;;19.03;85.20;100563.37;125074;1093;64301;-80
2021/06/29 03:23:55;;;;;;;7.80;2.77;;;;;;;18.98;85.41;100561.39;125040;1093;64403;-79
2021/06/29 03:26:22;;;;;;;4.73;3.00;;;;;;;18.95;85.53;100567.22;125187;1093;64281;-79
2021/06/29 03:28:49;;;;;;;3.50;2.40;;;;;;;18.94;86.54;100566.41;125180;1093;64380;-79
2021/06/29 03:31:17;;;;;;;4.57;3.13;;;;;;;18.91;86.22;100572.26;125418;1092;64342;-79
2021/06/29 03:33:44;;;;;;;5.73;3.20;;;;;;;18.90;87.39;100575.17;125012;1093;64352;-78
2021/06/29 03:36:11;;;;;;;4.53;3.10;;;;;;;18.86;88.42;100580.19;125243;1092;64301;-79
2021/06/29 03:38:39;;;;;;;8.05;3.50;;;;;;;18.84;88.53;100581.47;125236;1093;64303;-81
2021/06/29 03:41:07;;;;;;;6.63;3.47;;;;;;;18.80;89.19;100582.98;125390;1093;64776;-80
2021/06/29 03:43:37;;;;;;;5.20;3.13;;;;;;;18.77;89.70;100586.13;125114;1093;64636;-79
2021/06/29 03:46:06;;;;;;;5.10;3.00;;;;;;;18.70;90.28;100575.45;125270;1093;64409;-79
2021/06/29 03:48:34;;;;;;;5.10;2.30;;;;;;;18.67;90.02;100578.61;125227;1092;64304;-79
2021/06/29 03:51:03;;;;;;;4.73;3.00;;;;;;;18.62;91.30;100582.00;125285;1093;64304;-79
2021/06/29 03:53:30;;;;;;;5.23;3.43;;;;;;;18.59;90.97;100579.76;126776;1093;63355;-81
2021/06/29 03:55:57;;;;;;;5.13;2.70;;;;;;;18.58;91.83;100582.70;127531;1093;62322;-82
2021/06/29 03:58:24;;;;;;;5.70;2.97;;;;;;;18.56;91.95;100577.55;126286;1093;64173;-81
2021/06/29 04:00:51;;;;;;;5.00;3.20;;;;;;;18.56;92.19;100585.61;125081;1093;64301;-79
2021/06/29 04:03:19;;;;;;;4.03;2.93;;;;;;;18.56;91.80;100574.86;124994;1093;64278;-79
2021/06/29 04:05:46;;;;;;;4.77;3.40;;;;;;;18.57;92.32;100564.92;125055;1093;64345;-80
2021/06/29 04:08:13;;;;;;;5.13;3.27;;;;;;;18.55;92.28;100565.15;125223;1093;64304;-79
2021/06/29 04:10:40;;;;;;;4.90;2.83;;;;;;;18.54;92.38;100558.97;124947;1093;64185;-79
2021/06/29 04:13:08;;;;;;;5.23;2.70;;;;;;;18.54;92.34;100558.97;125215;1093;64282;-81
2021/06/29 04:15:35;;;;;;;5.70;3.00;;;;;;;18.56;92.40;100558.74;125088;1091;64342;-79
2021/06/29 04:18:02;;;;;;;4.40;3.17;;;;;;;18.57;92.44;100559.55;125183;1093;64237;-80
2021/06/29 04:20:29;;;;;;;7.17;3.30;;;;;;;18.56;92.88;100564.12;125088;1093;64265;-80
2021/06/29 04:22:56;;;;;;;7.75;3.35;;;;;;;18.57;92.61;100546.13;125106;1093;65119;-79
2021/06/29 04:25:23;;;;;;;4.30;2.83;;;;;;;18.57;92.26;100533.50;125260;1092;64648;-79
2021/06/29 04:27:50;;;;;;;4.80;3.10;;;;;;;18.59;92.91;100550.20;125222;1093;64290;-80
2021/06/29 04:30:18;;;;;;;4.47;2.70;;;;;;;18.59;92.85;100534.09;125246;1093;64394;-79
2021/06/29 04:32:45;;;;;;;6.80;3.57;;;;;;;18.60;92.72;100522.30;125160;1093;64279;-80
2021/06/29 04:35:12;;;;;;;7.10;2.97;;;;;;;18.61;92.91;100523.93;125236;1093;64387;-80
2021/06/29 04:37:39;;;;;;;4.93;2.90;;;;;;;18.64;92.44;100511.92;124956;1093;64375;-80
2021/06/29 04:40:07;;;;;;;7.55;2.90;;;;;;;18.64;92.53;100506.55;125229;1092;64383;-80
2021/06/29 04:42:34;;;;;;;5.77;2.93;;;;;;;18.63;93.37;100494.97;125148;1092;64282;-80
2021/06/29 04:45:02;;;;;;;5.43;2.07;;;;;;;18.62;93.68;100492.53;125016;1093;64298;-80
2021/06/29 04:47:35;;;;;;;4.50;2.70;;;;;;;18.59;93.92;100474.98;125190;1093;64626;-81
2021/06/29 04:50:05;;;;;;;4.85;3.40;;;;;;;18.59;94.49;100458.87;125336;1092;64201;-80
2021/06/29 04:52:33;;;;;;;6.50;2.90;;;;;;;18.59;93.92;100448.13;125172;1093;64323;-80
2021/06/29 04:55:01;;;;;;;4.97;2.50;;;;;;;18.60;95.01;100440.91;125161;1093;64304;-80
2021/06/29 04:57:28;;;;;;;6.57;3.10;;;;;;;18.61;94.69;100439.84;125005;1093;64420;-81
2021/06/29 04:59:55;;;;;;;7.77;3.70;;;;;;;18.62;94.85;100439.61;125209;1093;64320;-84
2021/06/29 05:02:23;;;;;;;7.25;3.60;;;;;;;18.64;95.16;100445.56;125140;1092;64378;-79
2021/06/29 05:04:50;;;;;;;5.90;3.00;;;;;;;18.66;94.67;100462.27;125308;1093;64287;-83
2021/06/29 05:07:18;;;;;;;5.43;2.80;;;;;;;18.68;94.77;100465.55;125340;1093;64262;-83
2021/06/29 05:09:45;;;;;;;6.43;3.27;;;;;;;18.71;94.88;100475.81;125302;1093;65842;-83
2021/06/29 05:12:12;;;;;;;3.73;3.33;;;;;;;18.75;94.31;100485.04;125568;1093;64152;-84
2021/06/29 05:14:40;;;;;;;5.90;3.07;;;;;;;18.81;93.63;100490.58;125427;1092;64284;-84
2021/06/29 05:17:07;;;;;;;4.97;2.07;;;;;;;18.85;93.88;100497.09;125079;1092;64303;-72
2021/06/29 05:19:34;;;;;;;5.70;2.85;;;;;;;18.88;93.82;100491.27;124886;1093;64284;-74
2021/06/29 05:22:01;;;;;;;6.20;2.50;;;;;;;18.91;93.58;100485.41;124890;1093;64217;-74
2021/06/29 05:24:28;;;;;;;5.33;3.00;;;;;;;18.93;93.50;100472.55;124843;1093;64342;-75
2021/06/29 05:26:55;;;;;;;5.60;3.13;;;;;;;18.95;93.20;100476.63;124875;1093;64258;-73
2021/06/29 05:29:23;;;;;;;3.83;2.47;;;;;;;18.97;92.69;100479.09;124897;1093;64284;-73
2021/06/29 05:31:50;;;;;;;5.90;3.03;;;;;;;18.99;92.51;100474.30;124837;1093;64947;-72
2021/06/29 05:34:17;;;;;;;4.67;2.60;;;;;;;19.01;92.10;100464.13;124862;1092;64304;-73
2021/06/29 05:36:44;;;;;;;5.90;3.00;;;;;;;19.06;92.20;100472.32;124676;1093;64310;-72
2021/06/29 05:39:15;;;;;;;4.60;2.80;;;;;;;19.10;92.24;100473.45;124679;1093;64296;-74
2021/06/29 05:41:42;;;;;;;4.57;2.90;;;;;;;19.14;91.82;100479.99;124840;1093;64297;-72
2021/06/29 05:44:10;;;;;;;4.27;2.47;;;;;;;19.21;91.59;100479.05;124875;1093;64208;-72
2021/06/29 05:46:40;;;;;;;4.10;2.57;;;;;;;19.27;91.19;100473.53;124866;1093;64282;-72
2021/06/29 05:49:13;;;;;;;4.23;2.67;;;;;;;19.32;90.99;100465.58;124809;1093;64350;-73
2021/06/29 05:51:46;;;;;;;4.67;3.17;;;;;;;19.41;90.54;100473.28;124942;1093;64282;-72
2021/06/29 05:54:16;;;;;;;4.33;2.10;;;;;;;19.46;89.67;100484.94;124931;1092;64736;-72
2021/06/29 05:56:43;;;;;;;6.00;1.90;;;;;;;19.51;89.64;100487.75;124845;1093;64294;-73
2021/06/29 05:59:11;;;;;;;4.50;2.33;;;;;;;19.52;89.85;100491.25;124995;1093;64342;-72
2021/06/29 06:01:38;;;;;;;7.93;3.13;;;;;;;19.53;90.10;100499.09;124629;1093;64293;-71
2021/06/29 06:04:10;;;;;;;3.57;2.80;;;;;;;19.52;90.01;100505.52;125267;1093;64286;-71
2021/06/29 06:06:37;;;;;;;5.90;2.97;;;;;;;19.56;90.36;100511.23;124882;1093;65505;-71
2021/06/29 06:09:05;;;;;;;5.53;2.40;;;;;;;19.56;89.97;100505.86;124680;1093;64346;-74
2021/06/29 06:11:32;;;;;;;3.70;2.80;;;;;;;19.56;90.67;100497.78;124814;1093;64279;-72
2021/06/29 06:13:59;;;;;;;6.20;2.43;;;;;;;19.58;90.71;100497.55;125030;1092;64377;-73
2021/06/29 06:16:26;;;;;;;6.13;2.77;;;;;;;19.60;90.30;100492.75;124920;1093;64317;-73
2021/06/29 06:18:53;;;;;;;11.03;4.27;;;;;;;19.63;90.72;100487.69;124951;1092;64366;-73
2021/06/29 06:21:20;;;;;;;5.15;2.65;;;;;;;19.68;90.26;100474.34;124831;1092;64208;-72
2021/06/29 06:23:47;;;;;;;5.27;3.23;;;;;;;19.78;90.71;100472.92;124826;1093;64290;-72
2021/06/29 06:26:14;;;;;;;7.07;3.23;;;;;;;19.86;90.26;100475.23;124854;1092;64249;-72
2021/06/29 06:28:41;;;;;;;9.50;3.53;;;;;;;19.94;89.55;100472.95;124894;1093;64207;-72
2021/06/29 06:31:09;;;;;;;4.03;2.70;;;;;;;20.02;89.56;100471.75;125296;1093;64323;-72
2021/06/29 06:33:36;;;;;;;4.03;2.53;;;;;;;20.10;88.50;100470.52;124878;1092;64304;-72
2021/06/29 06:36:10;;;;;;;9.37;2.63;;;;;;;20.15;88.87;100467.93;124847;1093;64304;-72
2021/06/29 06:38:38;;;;;;;12.37;3.07;;;;;;;20.22;88.85;100470.46;124915;1093;64284;-72
2021/06/29 06:41:10;;;;;;;7.13;3.33;;;;;;;20.29;88.50;100471.10;124966;1093;64282;-72
2021/06/29 06:43:37;;;;;;;4.90;2.53;;;;;;;20.41;88.13;100465.64;124921;1093;64400;-71
2021/06/29 06:46:04;;;;;;;5.50;2.73;;;;;;;20.48;87.00;100471.67;124782;1093;64285;-72
2021/06/29 06:48:31;;;;;;;5.33;3.03;;;;;;;20.54;86.43;100471.50;124867;1092;64272;-72
2021/06/29 06:50:58;;;;;;;5.63;2.50;;;;;;;20.67;87.18;100470.37;124823;1092;64403;-72
2021/06/29 06:53:25;;;;;;;6.83;2.30;;;;;;;20.79;86.17;100482.95;124855;1093;64243;-73
2021/06/29 06:55:53;;;;;;;5.57;2.77;;;;;;;20.85;85.84;100476.57;124721;1093;64403;-73
2021/06/29 06:58:25;;;;;;;8.57;2.50;;;;;;;20.86;85.29;100478.19;124722;1093;64266;-73
2021/06/29 07:00:54;;;;;;;3.83;2.60;;;;;;;20.89;85.48;100480.38;124801;1093;64290;-73
2021/06/29 07:03:22;;;;;;;3.83;2.70;;;;;;;20.89;85.21;100481.21;124888;1093;64429;-73
2021/06/29 07:05:49;;;;;;;4.77;2.83;;;;;;;20.92;85.58;100477.20;125134;1093;64226;-72
2021/06/29 07:08:16;;;;;;;5.40;2.70;;;;;;;21.00;85.60;100479.47;124897;1093;64378;-73
2021/06/29 07:10:43;;;;;;;4.90;2.60;;;;;;;21.09;84.04;100480.66;124875;1093;64282;-73
2021/06/29 07:13:10;;;;;;;3.07;2.50;;;;;;;21.22;84.03;100482.16;124832;1092;64361;-73
2021/06/29 07:15:37;;;;;;;4.03;2.23;;;;;;;21.33;83.57;100483.10;124804;1093;64300;-73
2021/06/29 07:18:05;;;;;;;3.53;2.43;;;;;;;21.38;82.40;100480.48;124806;1093;64301;-73
2021/06/29 07:20:32;;;;;;;4.50;2.30;;;;;;;21.39;81.27;100482.09;124857;1093;64259;-72
2021/06/29 07:22:59;;;;;;;5.83;2.40;;;;;;;21.38;80.70;100477.78;124882;1093;64240;-73
2021/06/29 07:25:27;;;;;;;3.37;1.87;;;;;;;21.42;80.82;100483.50;124889;1093;64285;-72
2021/06/29 07:27:54;;;;;;;4.43;1.60;;;;;;;21.45;81.48;100486.52;124769;1093;64285;-72
2021/06/29 07:30:21;;;;;;;5.40;2.80;;;;;;;21.47;81.13;100488.98;124854;1092;64934;-73
2021/06/29 07:32:53;;;;;;;4.93;2.67;;;;;;;21.48;80.88;100479.80;124696;1093;64304;-71
2021/06/29 07:35:21;;;;;;;4.13;2.83;;;;;;;21.58;81.05;100479.92;124866;1093;64290;-72
2021/06/29 07:37:48;;;;;;;5.13;2.50;;;;;;;21.61;80.13;100474.00;124916;1092;64255;-73
2021/06/29 07:40:15;;;;;;;5.57;2.80;;;;;;;21.67;80.12;100477.58;124847;1093;64357;-73
2021/06/29 07:42:43;;;;;;;6.43;2.60;;;;;;;21.74;80.21;100478.18;124882;1093;64285;-73
2021/06/29 07:45:11;;;;;;;6.57;2.77;;;;;;;21.67;79.70;100480.28;125005;1092;64261;-73
2021/06/29 07:47:40;;;;;;;5.80;2.67;;;;;;;21.52;79.52;100489.03;124994;1093;64301;-73
2021/06/29 07:50:09;;;;;;;3.37;2.90;;;;;;;21.38;80.48;100502.07;125056;1092;64282;-71
2021/06/29 07:52:37;;;;;;;5.23;2.20;;;;;;;21.25;81.62;100497.87;124757;1093;64411;-73
2021/06/29 07:55:05;;;;;;;4.90;2.03;;;;;;;21.14;81.65;100501.48;124941;1093;64961;-74
2021/06/29 07:57:34;;;;;;;3.63;1.87;;;;;;;21.04;81.94;100502.17;124900;1093;64320;-73
2021/06/29 08:00:01;;;;;;;6.37;2.27;;;;;;;20.91;82.61;100499.81;124907;1093;65171;-71
2021/06/29 08:02:28;;;;;;;3.57;2.57;;;;;;;20.81;83.01;100492.42;124666;1092;64293;-73
2021/06/29 08:04:55;;;;;;;2.53;1.93;;;;;;;20.79;83.27;100482.95;124921;1092;64464;-72
2021/06/29 08:07:23;;;;;;;3.20;2.40;;;;;;;20.77;83.77;100485.89;124646;1093;64305;-72
2021/06/29 08:09:50;;;;;;;4.77;2.20;;;;;;;20.75;83.66;100491.52;124854;1093;64307;-73
2021/06/29 08:12:17;;;;;;;5.87;2.60;;;;;;;20.73;83.71;100490.95;124839;1093;64290;-73
2021/06/29 08:14:45;;;;;;;4.33;2.47;;;;;;;20.69;84.20;100489.81;124849;1093;64290;-73
2021/06/29 08:17:13;;;;;;;4.43;2.10;;;;;;;20.64;85.28;100480.84;124867;1092;64425;-73
2021/06/29 08:19:40;;;;;;;2.93;2.20;;;;;;;20.61;85.41;100487.53;124847;1093;64323;-73
2021/06/29 08:22:07;;;;;;;5.63;3.20;;;;;;;20.63;85.14;100496.18;124865;1092;64288;-73
2021/06/29 08:24:34;;;;;;;5.47;2.40;;;;;;;20.65;85.94;100517.50;124814;1093;64290;-73
2021/06/29 08:27:01;;;;;;;4.00;2.57;;;;;;;20.61;85.90;100514.48;124854;1093;64257;-73
2021/06/29 08:29:29;;;;;;;4.07;2.87;;;;;;;20.62;85.72;100499.95;124818;1092;64454;-72
2021/06/29 08:31:56;;;;;;;3.00;2.17;;;;;;;20.70;85.51;100501.43;124856;1093;64208;-72
2021/06/29 08:34:23;;;;;;;4.10;2.73;;;;;;;20.84;85.56;100496.49;124680;1093;64278;-73
2021/06/29 08:36:50;;;;;;;4.77;2.37;;;;;;;21.05;85.16;100493.01;124842;1093;64387;-72
2021/06/29 08:39:17;;;;;;;3.80;2.33;;;;;;;21.27;84.68;100494.89;124668;1093;64326;-73
2021/06/29 08:41:46;;;;;;;6.47;2.30;;;;;;;21.41;83.17;100490.76;124858;1092;64300;-73
2021/06/29 08:44:14;;;;;;;3.23;2.30;;;;;;;21.38;82.13;100486.69;124911;1093;64264;-73
2021/06/29 08:46:42;;;;;;;4.67;2.47;;;;;;;21.38;82.32;100488.58;124666;1093;64396;-72
2021/06/29 08:49:12;;;;;;;5.57;2.67;;;;;;;21.41;81.90;100481.86;124768;1093;64362;-72
2021/06/29 08:51:50;;;;;;;2.30;1.73;;;;;;;21.42;79.93;100478.11;124880;1092;64289;-72
2021/06/29 08:54:21;;;;;;;3.23;2.03;;;;;;;21.47;80.07;100480.88;124694;1093;64262;-72
2021/06/29 08:56:48;;;;;;;3.50;2.17;;;;;;;21.58;80.20;100478.03;124714;1093;64304;-72
2021/06/29 08:59:15;;;;;;;2.73;2.30;;;;;;;21.74;79.68;100488.98;124898;1093;64387;-74
2021/06/29 09:01:42;;;;;;;2.87;1.83;;;;;;;21.91;79.98;100478.08;124910;1093;64284;-74
2021/06/29 09:04:10;;;;;;;4.57;2.27;;;;;;;22.08;79.53;100483.37;124899;1093;64214;-73
2021/06/29 09:06:40;;;;;;;4.63;1.77;;;;;;;22.23;77.82;100474.61;124833;1093;64307;-73
2021/06/29 09:09:28;;;;;;;6.13;2.10;;;;;;;22.33;77.51;100472.80;124943;1093;64287;-73
2021/06/29 09:11:58;;;;;;;4.73;1.80;;;;;;;22.44;76.95;100464.77;124998;1093;64783;-73
2021/06/29 09:14:29;;;;;;;3.53;1.57;;;;;;;22.60;77.23;100474.63;124873;1092;64285;-72
2021/06/29 09:17:20;;;;;;;3.17;1.60;;;;;;;22.77;75.55;100475.27;124857;1093;64336;-73
2021/06/29 09:19:48;;;;;;;2.93;1.73;;;;;;;22.89;73.83;100466.96;124659;1091;64432;-73
2021/06/29 09:22:30;;;;;;;2.20;1.50;;;;;;;23.04;72.18;100473.56;125103;1093;64217;-73
2021/06/29 09:24:58;;;;;;;3.00;1.23;;;;;;;23.02;72.53;100463.00;124882;1093;64227;-73
2021/06/29 09:27:47;;;;;;;3.53;1.43;;;;;;;23.05;73.39;100473.28;124853;1093;64211;-73
2021/06/29 09:30:50;;;;;;;2.10;1.40;;;;;;;23.09;73.57;100466.27;124915;1093;64243;-73
2021/06/29 09:33:19;;;;;;;6.13;2.50;;;;;;;23.09;73.99;100468.17;124823;1093;64388;-73
2021/06/29 09:35:50;;;;;;;4.87;1.97;;;;;;;23.09;74.23;100463.56;124913;1093;64403;-74
2021/06/29 09:38:21;;;;;;;4.15;2.60;;;;;;;23.02;72.82;100465.70;124887;1093;64272;-74
2021/06/29 09:40:59;;;;;;;4.73;2.70;;;;;;;22.93;73.06;100464.53;125042;1093;64904;-73
2021/06/29 09:43:28;;;;;;;2.30;2.10;;;;;;;22.84;73.39;100475.03;124746;1092;65503;-73
2021/06/29 09:46:00;;;;;;;3.87;2.60;;;;;;;22.75;74.13;100466.60;124731;1093;64247;-74
2021/06/29 09:48:34;;;;;;;3.23;2.40;;;;;;;22.74;74.50;100470.39;124860;1093;64869;-74
2021/06/29 09:51:10;;;;;;;4.60;2.30;;;;;;;22.77;74.68;100464.45;124936;1093;64299;-73
2021/06/29 09:53:42;;;;;;;2.30;1.70;;;;;;;22.84;74.42;100460.70;124958;1093;64174;-73
2021/06/29 09:56:15;;;;;;;4.30;2.10;;;;;;;22.90;74.51;100462.36;124975;1093;64233;-74
2021/06/29 09:58:51;;;;;;;5.33;2.50;;;;;;;23.05;73.76;100456.24;124881;1093;64236;-74
2021/06/29 10:01:20;;;;;;;2.63;1.40;;;;;;;23.19;73.47;100449.27;125219;1092;64285;-74
2021/06/29 10:03:52;;;;;;;4.57;1.90;;;;;;;23.33;72.56;100444.16;125088;1093;65065;-74
2021/06/29 10:06:48;;;;;;;3.57;1.50;;;;;;;23.43;71.21;100443.39;124699;1093;64278;-73
2021/06/29 10:09:17;;;;;;;2.93;1.90;;;;;;;23.57;71.97;100431.78;124921;1093;64284;-74
2021/06/29 10:11:52;;;;;;;2.50;1.70;;;;;;;23.77;72.22;100438.34;124816;1093;65481;-74
2021/06/29 10:14:22;;;;;;;3.93;1.70;;;;;;;24.01;72.21;100430.48;124882;1093;64301;-73
2021/06/29 10:16:51;;;;;;;4.00;2.20;;;;;;;24.15;70.05;100436.99;125081;1092;64284;-74
2021/06/29 10:22:02;;;;;;;2.83;1.47;;;;;;;24.31;69.65;100426.97;124844;1093;64646;-75
2021/06/29 10:24:40;;;;;;;2.70;2.00;;;;;;;24.40;68.45;100432.64;124893;1093;64428;-74
2021/06/29 10:27:08;;;;;;;6.33;2.37;;;;;;;24.53;67.22;100428.58;124855;1093;64319;-75
2021/06/29 10:29:36;;;;;;;3.80;1.90;;;;;;;24.70;66.95;100428.27;124836;1092;64390;-74
2021/06/29 10:32:07;;;;;;;3.43;1.87;;;;;;;24.82;66.74;100426.88;124909;1093;64327;-74
2021/06/29 10:34:35;;;;;;;2.20;1.33;;;;;;;24.91;64.91;100423.59;124987;1093;64310;-74
2021/06/29 10:37:05;;;;;;;1.90;1.10;;;;;;;24.93;61.71;100422.22;125023;1093;64293;-74
2021/06/29 10:39:34;;;;;;;1.60;1.10;;;;;;;25.01;62.15;100418.09;124762;1092;64309;-74
2021/06/29 10:42:11;;;;;;;2.00;1.00;;;;;;;25.09;60.10;100414.00;124955;1093;64751;-74
2021/06/29 10:44:42;;;;;;;2.70;1.40;;;;;;;25.19;60.46;100422.10;124788;1093;64291;-75
2021/06/29 10:47:24;;;;;;;2.47;1.33;;;;;;;25.32;61.17;100423.42;124857;1093;64304;-74
2021/06/29 10:49:53;;;;;;;2.30;1.20;;;;;;;25.43;61.28;100419.55;124908;1092;64319;-74
2021/06/29 10:52:23;;;;;;;2.70;1.60;;;;;;;25.57;60.67;100420.55;124975;1093;64282;-73
2021/06/29 10:54:52;;;;;;;3.40;1.30;;;;;;;25.73;60.59;100412.28;124881;1092;64677;-73
2021/06/29 10:57:23;;;;;;;1.73;1.50;;;;;;;25.86;60.05;100419.78;124896;1093;65067;-74
2021/06/29 10:59:55;;;;;;;3.87;1.10;;;;;;;25.99;59.85;100412.91;124670;1093;64302;-74
2021/06/29 11:02:33;;;;;;;1.40;0.90;;;;;;;26.09;59.30;100412.02;124860;1093;64288;-74
2021/06/29 11:05:07;;;;;;;2.10;1.10;;;;;;;26.22;58.57;100416.79;124895;1093;64281;-73
2021/06/29 11:07:41;;;;;;;1.03;0.73;;;;;;;26.32;56.52;100410.45;124800;1092;64368;-73
2021/06/29 11:10:31;;;;;;;1.30;0.90;;;;;;;26.33;54.91;100410.17;125216;1091;65385;-74
2021/06/29 11:13:00;;;;;;;1.97;1.03;;;;;;;26.32;55.25;100408.53;124961;1093;64211;-73
2021/06/29 11:15:49;;;;;;;2.70;1.00;;;;;;;26.39;55.06;100411.72;124938;1093;64400;-73
2021/06/29 11:18:41;;;;;;;3.50;1.23;;;;;;;26.53;56.13;100402.89;125088;1092;64274;-74
2021/06/29 11:21:11;;;;;;;2.37;1.20;;;;;;;26.73;55.40;100394.51;124761;1093;64291;-73
2021/06/29 11:23:39;;;;;;;1.67;1.10;;;;;;;26.92;55.08;100393.75;124896;1092;64396;-74
2021/06/29 11:26:12;;;;;;;2.00;1.13;;;;;;;27.13;54.14;100405.98;124998;1092;64285;-74
2021/06/29 11:29:09;;;;;;;1.80;0.90;;;;;;;27.33;54.18;100404.11;124846;1092;65372;-74
2021/06/29 11:31:37;;;;;;;1.30;0.90;;;;;;;27.44;52.81;100402.88;125027;1092;64307;-73